Terminal Aerodrome Forecast
Issued by NWS

Home | Current Version | Previous Version | Text Only | Print | Product List | Glossary On
Versions: 1 2 3 4 5 6 7 8 9 10 11 12 13 14 15 16 17 18 19 20 21 22 23
000
FTUS43 KLSX 141100
TAFCPS
TAF
KCPS 141130Z 1412/1512 VRB03KT 6SM BR SCT080 BKN250
      TEMPO 1412/1414 3SM BR SCT002
     FM141400 12005KT P6SM BKN080
     FM141800 13006KT P6SM FEW040 SCT080
     FM150000 VRB03KT P6SM SCT100 BKN250=

USA.gov is the U.S. government's official web portal to all federal, state and local government web resources and services.